Time;durP1;ratioP1;P1;durP2;ratioP2;P2;SDS_P1;SDS_P2;PMS_P1;PMS_P2;Temp;Humidity;BMP_temperature;BMP_pressure;BME280_temperature;BME280_humidity;BME280_pressure;Samples;Min_cycle;Max_cycle;Signal;HPM_P1;HPM_P2
2023/03/04 00:02:17;;;;;;;35.78;18.25;;;;;;;6.34;100.00;97702.00;5123545;27;20030;-78
2023/03/04 00:04:43;;;;;;;38.33;16.80;;;;;;;6.37;100.00;97706.31;5115028;27;20027;-78
2023/03/04 00:07:08;;;;;;;33.38;17.17;;;;;;;6.33;100.00;97704.72;5110831;27;20034;-78
2023/03/04 00:09:34;;;;;;;35.03;17.30;;;;;;;6.32;100.00;97708.31;5133445;27;20053;-78
2023/03/04 00:11:59;;;;;;;35.95;18.20;;;;;;;6.26;100.00;97695.28;5114585;27;20042;-78
2023/03/04 00:14:25;;;;;;;34.05;17.25;;;;;;;6.27;100.00;97695.25;5120884;27;20092;-78
2023/03/04 00:16:50;;;;;;;36.47;17.33;;;;;;;6.35;100.00;97702.88;5110577;27;20026;-78
2023/03/04 00:19:16;;;;;;;34.92;16.77;;;;;;;6.34;100.00;97691.38;5108074;28;20410;-78
2023/03/04 00:21:42;;;;;;;37.90;18.15;;;;;;;6.32;100.00;97681.75;5117228;27;20047;-77
2023/03/04 00:24:07;;;;;;;34.17;17.17;;;;;;;6.42;100.00;97693.72;5166704;27;20019;-78
2023/03/04 00:26:33;;;;;;;38.83;17.30;;;;;;;6.45;100.00;97693.56;5131649;27;20517;-77
2023/03/04 00:28:58;;;;;;;40.42;17.40;;;;;;;6.42;100.00;97693.72;5123104;27;20490;-79
2023/03/04 00:31:24;;;;;;;41.50;18.13;;;;;;;6.33;100.00;97694.09;5164369;27;20023;-78
2023/03/04 00:33:49;;;;;;;33.47;17.02;;;;;;;6.25;100.00;97691.75;5117855;27;20537;-79
2023/03/04 00:36:15;;;;;;;41.50;19.17;;;;;;;6.28;100.00;97696.06;5131158;27;20038;-78
2023/03/04 00:38:40;;;;;;;39.33;18.85;;;;;;;6.29;100.00;97697.81;5131338;27;20026;-78
2023/03/04 00:41:06;;;;;;;45.38;19.23;;;;;;;6.30;100.00;97699.56;5166040;27;20532;-78
2023/03/04 00:43:31;;;;;;;42.10;18.70;;;;;;;6.30;100.00;97689.78;5119038;27;20161;-78
2023/03/04 00:45:57;;;;;;;45.90;20.48;;;;;;;6.27;100.00;97697.91;5125600;27;20414;-78
2023/03/04 00:48:22;;;;;;;44.20;20.17;;;;;;;6.29;100.00;97697.81;5097246;27;20034;-78
2023/03/04 00:50:50;;;;;;;41.88;19.63;;;;;;;6.35;100.00;97686.94;5121405;27;20019;-78
2023/03/04 00:53:16;;;;;;;46.17;19.38;;;;;;;6.30;100.00;97689.78;5131303;27;20027;-78
2023/03/04 00:55:41;;;;;;;41.35;19.00;;;;;;;6.23;100.00;97684.78;5148102;27;20166;-79
2023/03/04 00:58:07;;;;;;;44.58;19.15;;;;;;;6.19;100.00;97691.16;5107223;28;20100;-78
2023/03/04 01:00:32;;;;;;;45.90;19.00;;;;;;;6.21;100.00;97697.28;5122523;27;20019;-78
2023/03/04 01:02:58;;;;;;;44.03;19.27;;;;;;;6.27;100.00;97699.69;5116007;27;20026;-78
2023/03/04 01:05:23;;;;;;;39.78;19.73;;;;;;;6.32;100.00;97693.25;5113711;27;20061;-78
2023/03/04 01:07:50;;;;;;;43.85;20.35;;;;;;;6.26;100.00;97677.56;5101351;28;20067;-77
2023/03/04 01:10:16;;;;;;;47.60;20.42;;;;;;;6.26;100.00;97674.03;5128165;27;20035;-78
2023/03/04 01:12:41;;;;;;;39.50;19.58;;;;;;;6.27;100.00;97679.31;5139359;27;20046;-78
2023/03/04 01:15:11;;;;;;;47.03;20.85;;;;;;;6.28;100.00;97680.13;5130795;27;20059;-78
2023/03/04 01:17:37;;;;;;;44.97;20.52;;;;;;;6.18;100.00;97673.53;5121607;27;20031;-77
2023/03/04 01:20:05;;;;;;;39.20;18.70;;;;;;;6.21;100.00;97676.03;5110432;28;20032;-78
2023/03/04 01:22:30;;;;;;;41.13;19.25;;;;;;;6.20;100.00;97676.97;5135424;27;20108;-78
2023/03/04 01:24:56;;;;;;;43.55;19.83;;;;;;;6.17;100.00;97667.34;5111517;28;20031;-78
2023/03/04 01:27:21;;;;;;;45.53;20.45;;;;;;;6.17;100.00;97672.66;5110673;28;20070;-78
2023/03/04 01:29:47;;;;;;;46.72;20.30;;;;;;;6.21;100.00;97662.75;5110154;28;20068;-78
2023/03/04 01:32:12;;;;;;;41.72;19.30;;;;;;;6.18;100.00;97666.41;5110056;28;20027;-78
2023/03/04 01:34:39;;;;;;;41.45;19.90;;;;;;;6.14;100.00;97661.28;5093269;28;20483;-78
2023/03/04 01:37:05;;;;;;;44.22;20.95;;;;;;;6.06;100.00;97660.75;5110366;28;20020;-78
2023/03/04 01:39:30;;;;;;;51.05;22.00;;;;;;;6.04;100.00;97659.94;5109919;28;20394;-78
2023/03/04 01:41:56;;;;;;;47.13;20.23;;;;;;;5.92;100.00;97656.88;5110249;28;20023;-79
2023/03/04 01:44:22;;;;;;;47.58;21.77;;;;;;;5.91;100.00;97663.13;5109948;28;20076;-78
2023/03/04 01:46:53;;;;;;;52.22;22.58;;;;;;;5.98;100.00;97669.03;5111382;28;20085;-78
2023/03/04 01:49:19;;;;;;;45.28;21.85;;;;;;;5.96;100.00;97665.59;5092376;28;20498;-78
2023/03/04 01:51:53;;;;;;;52.33;22.77;;;;;;;5.87;100.00;97669.50;5085915;28;20474;-78
2023/03/04 01:54:20;;;;;;;49.45;22.10;;;;;;;6.00;100.00;97672.47;5092571;28;20027;-79
2023/03/04 01:56:47;;;;;;;49.97;22.73;;;;;;;5.90;100.00;97671.16;5109920;28;20023;-78
2023/03/04 01:59:22;;;;;;;53.83;23.50;;;;;;;5.88;100.00;97668.53;5092693;28;20046;-78
2023/03/04 02:01:56;;;;;;;55.22;23.75;;;;;;;5.96;100.00;97674.41;5109870;28;20111;-79
2023/03/04 02:04:25;;;;;;;71.30;30.75;;;;;;;5.91;100.00;97671.06;5109603;28;20024;-78
2023/03/04 02:06:51;;;;;;;63.28;29.92;;;;;;;5.92;100.00;97666.63;5109860;28;20019;-78
2023/03/04 02:09:17;;;;;;;72.68;30.23;;;;;;;5.99;100.00;97668.13;5109668;28;20084;-77
2023/03/04 02:11:44;;;;;;;61.58;28.38;;;;;;;6.00;100.00;97668.03;5144166;27;20031;-78
2023/03/04 02:14:10;;;;;;;53.97;26.27;;;;;;;5.98;100.00;97667.25;5126851;27;20043;-78
2023/03/04 02:16:36;;;;;;;75.82;28.98;;;;;;;5.90;100.00;97658.75;5109396;28;20501;-78
2023/03/04 02:19:05;;;;;;;65.60;30.52;;;;;;;5.89;100.00;97666.75;5092702;28;20035;-77
2023/03/04 02:21:32;;;;;;;67.85;29.65;;;;;;;5.90;100.00;97669.38;5109860;28;20028;-77
2023/03/04 02:24:34;;;;;;;60.03;27.33;;;;;;;5.87;100.00;97669.50;5104579;28;20024;-78
2023/03/04 02:27:00;;;;;;;49.20;22.80;;;;;;;5.96;100.00;97671.78;5103207;28;20034;-78
2023/03/04 02:29:27;;;;;;;68.20;30.00;;;;;;;5.89;100.00;97672.94;5095596;28;20416;-78
2023/03/04 02:31:53;;;;;;;57.33;26.02;;;;;;;5.92;100.00;97667.50;5106091;28;20023;-78
2023/03/04 02:34:22;;;;;;;66.13;26.17;;;;;;;5.87;100.00;97663.31;5130048;27;20038;-78
2023/03/04 02:36:48;;;;;;;59.92;26.88;;;;;;;5.95;100.00;97664.72;5121384;28;20023;-78
2023/03/04 02:39:19;;;;;;;57.72;26.65;;;;;;;6.02;100.00;97668.00;5112993;28;20027;-79
2023/03/04 02:41:49;;;;;;;58.37;26.53;;;;;;;6.03;100.00;97666.19;5131085;28;20371;-78
2023/03/04 02:44:18;;;;;;;52.50;24.80;;;;;;;5.95;100.00;97656.75;5122769;28;20284;-79
2023/03/04 02:46:44;;;;;;;67.72;28.35;;;;;;;5.99;100.00;97661.03;5110848;28;20046;-78
2023/03/04 02:49:10;;;;;;;52.25;24.42;;;;;;;6.00;100.00;97657.41;5127954;27;20146;-78
2023/03/04 02:51:35;;;;;;;45.25;22.10;;;;;;;6.07;100.00;97657.16;5128006;28;20038;-77
2023/03/04 02:54:01;;;;;;;42.80;21.00;;;;;;;6.04;100.00;97659.94;5131426;27;20095;-78
2023/03/04 02:56:26;;;;;;;49.28;22.95;;;;;;;6.06;100.00;97661.59;5126720;28;20490;-77
2023/03/04 02:58:52;;;;;;;67.03;29.15;;;;;;;6.09;100.00;97672.09;5128748;28;20379;-78
2023/03/04 03:01:17;;;;;;;60.10;28.98;;;;;;;6.14;100.00;97658.63;5131944;27;20030;-78
2023/03/04 03:03:43;;;;;;;57.90;27.48;;;;;;;6.05;100.00;97656.38;5106146;27;20460;-78
2023/03/04 03:06:09;;;;;;;58.85;27.98;;;;;;;6.13;100.00;97670.16;5134820;27;20027;-78
2023/03/04 03:08:34;;;;;;;52.88;25.30;;;;;;;6.04;100.00;97659.94;5100521;27;20406;-78
2023/03/04 03:11:00;;;;;;;53.00;24.80;;;;;;;6.11;100.00;97661.41;5134321;27;20119;-78
2023/03/04 03:13:25;;;;;;;57.95;24.52;;;;;;;6.13;100.00;97654.25;5104050;27;20031;-78
2023/03/04 03:15:51;;;;;;;51.13;24.17;;;;;;;6.13;100.00;97651.59;5132897;27;20084;-78
2023/03/04 03:18:16;;;;;;;52.25;23.52;;;;;;;6.05;100.00;97651.94;5104260;27;20042;-78
2023/03/04 03:20:42;;;;;;;46.65;22.40;;;;;;;5.98;100.00;97637.19;5129657;27;20459;-77
2023/03/04 03:23:07;;;;;;;55.95;23.40;;;;;;;5.97;100.00;97654.88;5098901;27;20051;-77
2023/03/04 03:25:33;;;;;;;50.97;22.02;;;;;;;6.04;100.00;97655.50;5115592;27;20088;-77
2023/03/04 03:27:58;;;;;;;47.38;22.25;;;;;;;6.11;100.00;97661.41;5107834;27;20056;-78
2023/03/04 03:30:24;;;;;;;44.05;20.98;;;;;;;6.12;100.00;97658.69;5128727;27;20106;-78
2023/03/04 03:32:49;;;;;;;42.92;20.15;;;;;;;6.04;100.00;97641.34;5098601;27;20114;-78
2023/03/04 03:35:15;;;;;;;45.55;20.42;;;;;;;6.06;100.00;97647.50;5165930;27;20110;-79
2023/03/04 03:37:40;;;;;;;48.67;21.40;;;;;;;6.07;100.00;97654.50;5130468;27;20489;-79
2023/03/04 03:40:06;;;;;;;42.70;19.25;;;;;;;6.10;100.00;97651.72;5125591;27;20402;-78
2023/03/04 03:42:32;;;;;;;54.17;24.52;;;;;;;6.17;100.00;97655.84;5115289;27;20095;-78
2023/03/04 03:44:57;;;;;;;65.85;27.92;;;;;;;6.16;100.00;97656.75;5106710;27;20030;-77
2023/03/04 03:47:23;;;;;;;59.83;26.20;;;;;;;6.16;100.00;97654.09;5132598;27;20396;-78
2023/03/04 03:49:49;;;;;;;67.63;25.77;;;;;;;6.14;100.00;97653.31;5125280;27;20034;-78
2023/03/04 03:52:14;;;;;;;54.22;24.52;;;;;;;6.13;100.00;97648.94;5106724;27;20049;-78
2023/03/04 03:54:40;;;;;;;62.38;24.65;;;;;;;6.19;100.00;97651.31;5133506;27;20023;-77
2023/03/04 03:57:05;;;;;;;55.80;24.45;;;;;;;6.24;100.00;97652.00;5099238;27;20402;-78
2023/03/04 03:59:31;;;;;;;56.88;24.23;;;;;;;6.22;100.00;97654.72;5128326;27;20097;-79
2023/03/04 04:01:56;;;;;;;51.10;23.52;;;;;;;6.18;100.00;97645.16;5121330;27;20030;-78
2023/03/04 04:04:22;;;;;;;76.65;29.48;;;;;;;6.18;100.00;97631.91;5133499;27;20463;-79
2023/03/04 04:06:47;;;;;;;67.68;29.67;;;;;;;6.30;100.00;97651.75;5119938;27;20023;-78
2023/03/04 04:09:13;;;;;;;54.20;24.02;;;;;;;6.26;100.00;97650.13;5114977;27;20467;-78
2023/03/04 04:11:38;;;;;;;63.55;25.77;;;;;;;6.25;100.00;97648.41;5110824;27;20046;-78
2023/03/04 04:14:04;;;;;;;51.78;24.27;;;;;;;6.27;100.00;97649.22;5098999;27;20027;-77
2023/03/04 04:16:29;;;;;;;55.33;24.27;;;;;;;6.29;100.00;97650.00;5114279;27;20132;-78
2023/03/04 04:18:55;;;;;;;59.50;25.85;;;;;;;6.30;100.00;97651.75;5114642;27;20076;-78
2023/03/04 04:21:20;;;;;;;51.72;23.02;;;;;;;6.28;100.00;97643.81;5116419;27;20490;-78
2023/03/04 04:23:46;;;;;;;49.03;22.77;;;;;;;6.33;100.00;97646.28;5111664;27;20047;-77
2023/03/04 04:26:11;;;;;;;54.33;24.38;;;;;;;6.32;100.00;97648.09;5114270;27;20046;-79
2023/03/04 04:28:37;;;;;;;51.35;21.88;;;;;;;6.35;100.00;97655.06;5133089;27;20046;-78
2023/03/04 04:31:06;;;;;;;47.38;19.90;;;;;;;6.30;100.00;97654.41;5114348;27;20114;-78
2023/03/04 04:33:32;;;;;;;50.15;21.38;;;;;;;6.30;100.00;97657.06;5116410;27;20104;-78
2023/03/04 04:35:57;;;;;;;50.10;21.63;;;;;;;6.26;100.00;97655.44;5123108;27;20027;-77
2023/03/04 04:38:24;;;;;;;51.92;21.58;;;;;;;6.26;100.00;97652.78;5122644;27;20083;-78
2023/03/04 04:40:49;;;;;;;54.97;21.60;;;;;;;6.25;100.00;97651.94;5101716;27;20230;-77
2023/03/04 04:43:14;;;;;;;58.88;22.00;;;;;;;6.22;100.00;97643.22;5110629;27;20401;-78
2023/03/04 04:45:40;;;;;;;58.60;22.55;;;;;;;6.12;100.00;97636.59;5132759;27;20116;-78
2023/03/04 04:48:06;;;;;;;58.38;21.90;;;;;;;6.15;100.00;97636.47;5098913;27;20026;-78
2023/03/04 04:50:31;;;;;;;58.53;21.55;;;;;;;6.00;100.00;97636.19;5127000;27;20039;-77
2023/03/04 04:52:57;;;;;;;52.33;21.38;;;;;;;6.03;100.00;97656.41;5131389;27;20095;-78
2023/03/04 04:55:22;;;;;;;55.75;21.02;;;;;;;6.05;100.00;97662.53;5126643;27;20050;-77
2023/03/04 04:57:48;;;;;;;48.28;20.00;;;;;;;6.06;100.00;97660.75;5105559;27;20478;-77
2023/03/04 05:00:14;;;;;;;44.50;17.77;;;;;;;6.01;100.00;97655.63;5122587;27;20031;-77
2023/03/04 05:02:39;;;;;;;42.70;17.02;;;;;;;5.98;100.00;97658.41;5105715;27;20601;-78
2023/03/04 05:05:06;;;;;;;43.08;17.85;;;;;;;6.03;100.00;97669.69;5105416;27;20031;-78
2023/03/04 05:07:32;;;;;;;36.70;16.05;;;;;;;6.04;100.00;97665.25;5097137;27;20026;-77
2023/03/04 05:09:58;;;;;;;45.72;17.10;;;;;;;6.01;100.00;97671.56;5096833;27;20033;-78
2023/03/04 05:12:23;;;;;;;41.65;17.70;;;;;;;6.07;100.00;97673.09;5118318;27;20023;-78
2023/03/04 05:14:49;;;;;;;45.97;17.98;;;;;;;6.09;100.00;97671.25;5122399;27;20107;-78
2023/03/04 05:17:14;;;;;;;50.97;20.67;;;;;;;6.02;100.00;97670.66;5113723;27;20055;-78
2023/03/04 05:19:40;;;;;;;53.88;20.60;;;;;;;5.94;100.00;97670.06;5124229;27;20022;-78
2023/03/04 05:22:05;;;;;;;56.40;21.63;;;;;;;5.94;100.00;97688.66;5129931;27;20055;-78
2023/03/04 05:24:31;;;;;;;54.90;21.73;;;;;;;5.85;100.00;97684.59;5100186;27;20034;-78
2023/03/04 05:26:56;;;;;;;59.35;21.02;;;;;;;5.87;100.00;97690.72;5096792;27;20027;-78
2023/03/04 05:29:22;;;;;;;56.22;20.38;;;;;;;5.98;100.00;97698.22;5113666;27;20030;-78
2023/03/04 05:31:47;;;;;;;49.42;20.20;;;;;;;6.04;100.00;97705.06;5120642;27;20034;-79
2023/03/04 05:34:13;;;;;;;51.13;21.70;;;;;;;6.05;100.00;97701.50;5096663;27;20497;-79
2023/03/04 05:36:38;;;;;;;58.25;22.10;;;;;;;6.20;100.00;97703.50;5113658;28;20043;-78
2023/03/04 05:39:04;;;;;;;58.75;21.25;;;;;;;6.19;100.00;97702.66;5113454;27;20035;-78
2023/03/04 05:41:30;;;;;;;50.58;20.98;;;;;;;6.15;100.00;97695.75;5160814;27;20034;-78
2023/03/04 05:43:55;;;;;;;59.25;23.15;;;;;;;6.09;100.00;97703.13;5131939;27;20023;-78
2023/03/04 05:46:24;;;;;;;51.97;22.17;;;;;;;6.19;100.00;97705.31;5126327;27;20051;-77
2023/03/04 05:48:51;;;;;;;50.30;21.33;;;;;;;6.28;100.00;97704.03;5124618;28;20035;-78
2023/03/04 05:51:17;;;;;;;54.05;22.85;;;;;;;6.38;100.00;97700.94;5098123;28;20034;-78
2023/03/04 05:53:42;;;;;;;47.10;20.17;;;;;;;6.45;100.00;97698.91;5113212;28;20027;-77
2023/03/04 05:56:14;;;;;;;47.05;19.88;;;;;;;6.46;100.00;97695.31;5104748;28;20038;-78
2023/03/04 05:58:40;;;;;;;48.67;20.10;;;;;;;6.44;100.00;97686.53;5100563;28;20023;-77
2023/03/04 06:01:05;;;;;;;49.28;18.75;;;;;;;6.40;100.00;97671.63;5117430;28;20379;-78
2023/03/04 06:03:31;;;;;;;44.95;17.88;;;;;;;6.55;100.00;97671.00;5117266;28;20423;-78
2023/03/04 06:05:57;;;;;;;42.20;18.92;;;;;;;6.71;100.00;97668.50;5113720;28;20127;-78
2023/03/04 06:08:23;;;;;;;112.13;53.83;;;;;;;6.82;100.00;97671.56;5101840;28;20071;-78
2023/03/04 06:10:52;;;;;;;62.08;27.42;;;;;;;6.89;100.00;97657.91;5128740;27;20063;-78
2023/03/04 06:13:18;;;;;;;48.53;21.23;;;;;;;6.87;100.00;97649.13;5118757;28;20031;-77
2023/03/04 06:15:43;;;;;;;48.40;21.00;;;;;;;6.88;100.00;97645.56;5121904;28;20027;-79
2023/03/04 06:18:09;;;;;;;48.40;20.33;;;;;;;6.93;100.00;97637.34;5117354;27;20038;-77
2023/03/04 06:20:34;;;;;;;46.70;20.55;;;;;;;6.99;100.00;97634.41;5108450;28;20039;-78
2023/03/04 06:23:00;;;;;;;52.47;23.05;;;;;;;7.10;100.00;97624.16;5098823;27;20051;-78
2023/03/04 06:25:25;;;;;;;47.38;21.42;;;;;;;7.15;100.00;97626.59;5118366;28;20023;-79
2023/03/04 06:27:51;;;;;;;43.88;20.00;;;;;;;7.32;100.00;97619.53;5115967;28;20027;-78
2023/03/04 06:30:17;;;;;;;47.50;20.10;;;;;;;7.43;100.00;97617.22;5107696;28;20042;-78
2023/03/04 06:32:43;;;;;;;39.72;18.25;;;;;;;7.55;100.00;97605.97;5121575;28;20383;-78
2023/03/04 06:35:10;;;;;;;35.17;16.40;;;;;;;7.70;100.00;97595.50;5106122;27;20039;-78
2023/03/04 06:37:36;;;;;;;36.42;17.77;;;;;;;7.67;100.00;97590.34;5125336;27;20023;-78
2023/03/04 06:40:03;;;;;;;41.72;17.63;;;;;;;7.83;100.00;97583.31;5116994;27;20023;-78
2023/03/04 06:42:29;;;;;;;37.97;17.50;;;;;;;7.79;100.00;97571.94;5122699;27;20478;-79
2023/03/04 06:44:54;;;;;;;35.40;16.73;;;;;;;7.92;100.00;97569.53;5135280;27;20026;-78
2023/03/04 06:47:20;;;;;;;38.25;17.05;;;;;;;8.00;100.00;97570.84;5127339;27;20533;-77
2023/03/04 06:49:45;;;;;;;39.88;17.48;;;;;;;7.89;100.00;97564.34;5136814;27;20467;-78
2023/03/04 06:52:11;;;;;;;35.75;18.25;;;;;;;8.00;100.00;97565.53;5133401;27;20481;-77
2023/03/04 06:54:38;;;;;;;39.25;18.13;;;;;;;8.18;100.00;97574.38;5120497;27;20031;-78
2023/03/04 06:57:03;;;;;;;49.72;19.75;;;;;;;8.19;100.00;97552.97;5110197;27;20030;-79
2023/03/04 06:59:29;;;;;;;47.25;19.58;;;;;;;8.19;100.00;97549.44;5128224;27;20027;-79
2023/03/04 07:01:55;;;;;;;40.33;17.55;;;;;;;8.08;100.00;97547.38;5134917;27;20023;-79
2023/03/04 07:04:22;;;;;;;46.08;18.33;;;;;;;8.14;100.00;97552.38;5111055;27;20492;-79
2023/03/04 07:06:48;;;;;;;37.30;18.80;;;;;;;8.23;100.00;97547.50;5125916;27;20114;-79
2023/03/04 07:09:14;;;;;;;38.00;16.77;;;;;;;8.35;100.00;97546.88;5133611;27;20156;-79
2023/03/04 07:11:39;;;;;;;39.72;18.83;;;;;;;8.87;100.00;97547.56;5139302;27;20031;-78
2023/03/04 07:14:05;;;;;;;51.92;23.33;;;;;;;9.03;100.00;97527.13;5114787;27;20023;-79
2023/03/04 07:16:30;;;;;;;55.38;26.77;;;;;;;9.32;100.00;97520.13;5104871;27;20107;-79
2023/03/04 07:18:56;;;;;;;49.30;24.58;;;;;;;9.46;100.00;97520.19;5107737;27;20113;-79
2023/03/04 07:21:21;;;;;;;54.42;25.73;;;;;;;9.67;100.00;97513.59;5133472;27;20031;-79
2023/03/04 07:23:47;;;;;;;46.75;22.55;;;;;;;9.79;100.00;97511.06;5120190;27;20058;-79
2023/03/04 07:26:13;;;;;;;45.65;22.30;;;;;;;9.58;100.00;97515.00;5134626;27;20027;-79
2023/03/04 07:28:39;;;;;;;59.83;29.10;;;;;;;9.73;100.00;97514.09;5107579;27;20023;-79
2023/03/04 07:31:23;;;;;;;64.65;31.23;;;;;;;9.52;100.00;97507.34;5124602;27;20035;-80
2023/03/04 07:33:49;;;;;;;69.25;33.65;;;;;;;9.47;100.00;97509.44;5134139;27;20023;-78
2023/03/04 07:36:17;;;;;;;46.33;22.85;;;;;;;9.69;100.00;97506.38;5104794;27;20027;-78
2023/03/04 07:38:47;;;;;;;39.20;17.90;;;;;;;10.16;100.00;97512.41;5132904;27;20015;-80
2023/03/04 07:41:13;;;;;;;40.45;17.83;;;;;;;12.14;100.00;97508.41;5132988;27;20091;-77
2023/03/04 07:43:38;;;;;;;25.10;12.48;;;;;;;14.11;100.00;97471.44;5099446;27;20027;-75
2023/03/04 07:46:04;;;;;;;30.27;14.07;;;;;;;15.37;98.47;97455.06;5134114;27;20016;-76
2023/03/04 07:48:30;;;;;;;26.00;13.18;;;;;;;16.13;84.72;97414.41;5114738;27;20027;-77
2023/03/04 07:51:25;;;;;;;24.27;13.32;;;;;;;17.22;77.79;97394.72;5133082;27;20023;-82
2023/03/04 07:53:53;;;;;;;24.70;13.38;;;;;;;18.26;66.74;97351.50;5113391;27;20100;-80
2023/03/04 07:56:21;;;;;;;25.48;12.52;;;;;;;17.44;69.03;97335.94;5096844;27;20411;-83
2023/03/04 07:58:47;;;;;;;20.38;11.95;;;;;;;17.39;68.71;97327.38;5106898;27;20027;-81
2023/03/04 08:01:29;;;;;;;26.35;13.25;;;;;;;16.25;74.98;97316.16;5111500;27;20475;-80
2023/03/04 08:03:55;;;;;;;26.00;14.55;;;;;;;15.55;80.46;97329.53;5116138;27;20570;-78
2023/03/04 08:06:21;;;;;;;22.38;12.38;;;;;;;15.21;84.54;97344.97;5114366;27;20039;-81
2023/03/04 08:08:47;;;;;;;23.55;12.73;;;;;;;14.16;89.23;97336.56;5124102;27;20027;-79
2023/03/04 08:11:15;;;;;;;25.13;13.02;;;;;;;13.00;99.06;97368.00;5140533;27;20118;-79
2023/03/04 08:13:41;;;;;;;27.45;13.50;;;;;;;12.71;100.00;97369.28;5119391;27;20023;-89
2023/03/04 08:16:07;;;;;;;23.08;12.68;;;;;;;12.03;100.00;97383.16;5110717;27;20030;-79
2023/03/04 08:18:33;;;;;;;23.63;12.60;;;;;;;11.64;100.00;97399.28;5097871;27;20021;-78
2023/03/04 08:20:58;;;;;;;23.88;12.15;;;;;;;11.33;100.00;97411.22;5113824;27;20015;-82
2023/03/04 08:23:24;;;;;;;22.80;12.00;;;;;;;10.87;100.00;97397.34;5103085;27;20058;-81
2023/03/04 08:25:50;;;;;;;24.33;12.82;;;;;;;10.83;100.00;97393.16;5124437;27;20094;-82
2023/03/04 08:28:16;;;;;;;28.13;13.95;;;;;;;11.00;100.00;97395.59;5112013;27;20044;-82
2023/03/04 08:30:41;;;;;;;28.15;13.98;;;;;;;11.18;100.00;97401.53;5119808;27;20026;-83
2023/03/04 08:33:07;;;;;;;24.42;13.00;;;;;;;11.22;100.00;97385.19;5095366;27;20042;-83
2023/03/04 08:35:36;;;;;;;30.88;15.75;;;;;;;10.91;100.00;97377.47;5111249;27;20039;-83
2023/03/04 08:38:06;;;;;;;28.70;15.05;;;;;;;11.05;100.00;97396.13;5112348;27;20031;-81
2023/03/04 08:40:32;;;;;;;34.60;15.52;;;;;;;11.03;100.00;97387.38;5128177;27;20485;-81
2023/03/04 08:42:58;;;;;;;26.52;13.95;;;;;;;10.88;100.00;97378.53;5116921;27;20077;-80
2023/03/04 08:45:24;;;;;;;27.33;14.02;;;;;;;10.86;100.00;97380.44;5138420;27;20049;-81
2023/03/04 08:47:50;;;;;;;28.63;13.95;;;;;;;10.72;100.00;97393.00;5126183;27;20093;-81
2023/03/04 08:50:16;;;;;;;52.65;22.63;;;;;;;10.72;100.00;97390.34;5111881;27;20422;-80
2023/03/04 08:52:42;;;;;;;31.45;16.13;;;;;;;10.91;100.00;97384.63;5137297;27;20034;-80
2023/03/04 08:55:08;;;;;;;30.45;15.38;;;;;;;10.92;100.00;97381.84;5094979;27;20036;-80
2023/03/04 08:57:33;;;;;;;32.10;16.75;;;;;;;11.08;100.00;97385.22;5102749;27;20053;-81
2023/03/04 08:59:59;;;;;;;32.72;16.25;;;;;;;11.25;100.00;97376.09;5127740;27;20079;-80
2023/03/04 09:02:24;;;;;;;31.77;16.20;;;;;;;11.27;100.00;97366.97;5122179;27;20091;-80
2023/03/04 09:04:50;;;;;;;35.83;16.88;;;;;;;11.59;100.00;97375.50;5100998;27;20114;-81
2023/03/04 09:07:15;;;;;;;30.92;15.32;;;;;;;11.98;100.00;97363.84;5107040;27;20034;-80
2023/03/04 09:09:41;;;;;;;27.15;14.15;;;;;;;12.13;100.00;97349.38;5127967;27;20045;-80
2023/03/04 09:12:07;;;;;;;29.80;14.18;;;;;;;12.25;100.00;97343.13;5116082;27;20105;-81
2023/03/04 09:14:34;;;;;;;29.15;13.88;;;;;;;12.52;100.00;97345.63;5103913;27;20107;-82
2023/03/04 09:17:03;;;;;;;34.53;14.85;;;;;;;12.45;100.00;97355.09;5104253;27;20306;-81
2023/03/04 09:19:29;;;;;;;21.23;11.98;;;;;;;12.62;100.00;97356.53;5105031;27;20034;-81
2023/03/04 09:21:55;;;;;;;24.13;10.35;;;;;;;12.55;99.75;97371.41;5109937;27;20518;-82
2023/03/04 09:24:21;;;;;;;24.75;11.13;;;;;;;12.85;99.81;97378.06;5103311;27;20593;-82
2023/03/04 09:26:51;;;;;;;17.25;9.63;;;;;;;13.05;96.13;97371.19;5102509;27;20110;-83
2023/03/04 09:29:16;;;;;;;19.40;8.90;;;;;;;13.07;95.14;97369.28;5137761;27;20034;-82
2023/03/04 09:31:42;;;;;;;18.17;9.50;;;;;;;13.60;93.27;97367.06;5096151;27;20031;-87
2023/03/04 09:34:07;;;;;;;21.63;7.85;;;;;;;14.04;88.08;97367.13;5104668;27;20489;-77
2023/03/04 09:36:33;;;;;;;12.30;6.85;;;;;;;14.14;87.35;97362.75;5121191;27;20580;-76
2023/03/04 09:39:00;;;;;;;14.88;7.22;;;;;;;14.50;84.09;97364.38;5145454;27;20030;-76
2023/03/04 09:41:32;;;;;;;16.13;7.60;;;;;;;15.10;75.13;97350.41;5124947;27;20027;-75
2023/03/04 09:43:58;;;;;;;11.93;5.68;;;;;;;15.82;71.17;97339.78;5115397;27;20341;-79
2023/03/04 09:46:33;;;;;;;13.85;6.93;;;;;;;16.50;68.97;97339.13;5108522;28;20027;-79
2023/03/04 09:48:58;;;;;;;8.85;3.90;;;;;;;16.30;63.61;97321.16;5118630;27;20072;-79
2023/03/04 09:51:45;;;;;;;6.38;3.85;;;;;;;15.88;64.13;97307.75;5097995;28;20023;-80
2023/03/04 09:54:25;;;;;;;7.05;3.55;;;;;;;16.15;62.98;97304.50;5105415;28;20038;-80
2023/03/04 09:56:58;;;;;;;7.57;4.07;;;;;;;16.29;63.24;97304.13;5120912;28;20066;-80
2023/03/04 09:59:31;;;;;;;14.48;6.63;;;;;;;17.75;60.12;97319.41;5104441;28;20392;-80
2023/03/04 10:02:07;;;;;;;18.33;9.45;;;;;;;18.47;55.84;97301.66;5105685;28;20398;-80
2023/03/04 10:04:40;;;;;;;19.05;9.95;;;;;;;18.05;55.21;97274.22;5098814;28;20031;-80
2023/03/04 10:07:14;;;;;;;14.65;8.60;;;;;;;16.98;59.09;97277.16;5113506;28;20371;-79
2023/03/04 10:09:50;;;;;;;18.52;9.07;;;;;;;17.37;58.06;97276.16;5104593;28;20494;-79
2023/03/04 10:12:19;;;;;;;17.23;8.45;;;;;;;18.02;55.63;97269.09;5148653;27;20019;-78
2023/03/04 10:14:56;;;;;;;12.80;7.07;;;;;;;18.69;52.30;97263.38;5100750;27;20031;-78
2023/03/04 10:17:41;;;;;;;13.32;8.07;;;;;;;20.47;48.42;97255.69;5118398;27;20489;-79
2023/03/04 10:20:22;;;;;;;13.70;5.88;;;;;;;19.67;48.28;97233.47;5117337;27;20021;-80
2023/03/04 10:22:50;;;;;;;10.73;6.03;;;;;;;21.84;45.87;97252.31;5131130;27;20054;-80
2023/03/04 10:25:26;;;;;;;9.60;5.50;;;;;;;23.33;43.08;97252.28;5151851;27;20023;-80
2023/03/04 10:27:55;;;;;;;15.00;6.75;;;;;;;23.88;40.99;97224.69;5116891;27;20091;-80
2023/03/04 10:30:29;;;;;;;11.85;6.38;;;;;;;23.10;40.18;97200.41;5117042;27;20477;-79
2023/03/04 10:32:54;;;;;;;10.98;6.07;;;;;;;23.30;40.68;97192.59;5135142;27;20518;-80
2023/03/04 10:35:22;;;;;;;11.30;6.45;;;;;;;23.48;40.48;97181.38;5135546;27;20065;-81
2023/03/04 10:37:49;;;;;;;8.60;4.25;;;;;;;22.94;40.54;97173.25;5116751;27;20031;-79
2023/03/04 10:40:22;;;;;;;6.82;4.82;;;;;;;23.15;41.88;97178.88;5098398;27;20106;-79
2023/03/04 10:42:49;;;;;;;11.95;5.28;;;;;;;24.17;38.92;97174.72;5127452;27;20023;-79
2023/03/04 10:45:29;;;;;;;12.82;4.85;;;;;;;22.68;41.82;97161.81;5101495;27;20019;-78
2023/03/04 10:47:55;;;;;;;6.95;3.80;;;;;;;22.45;41.60;97163.63;5108271;27;21097;-78
2023/03/04 10:50:24;;;;;;;21.35;6.60;;;;;;;22.13;42.22;97142.81;5109085;27;20110;-78
2023/03/04 10:52:51;;;;;;;10.20;4.15;;;;;;;20.93;43.62;97136.50;5122162;27;20510;-79
2023/03/04 10:55:28;;;;;;;8.73;4.30;;;;;;;19.68;44.90;97124.75;5106813;27;20057;-79
2023/03/04 10:57:56;;;;;;;10.07;4.93;;;;;;;17.91;49.58;97132.09;5119780;27;20126;-81
2023/03/04 11:00:37;;;;;;;11.73;4.82;;;;;;;17.46;51.80;97145.50;5130675;27;20023;-81
2023/03/04 11:03:36;;;;;;;7.57;3.85;;;;;;;18.03;52.81;97165.22;5145368;27;20035;-80
2023/03/04 11:06:19;;;;;;;18.23;5.30;;;;;;;19.72;49.12;97172.25;5093185;27;20047;-80
2023/03/04 11:08:49;;;;;;;6.68;3.95;;;;;;;20.37;46.95;97167.16;5130484;27;20057;-81
2023/03/04 11:11:29;;;;;;;9.13;3.42;;;;;;;22.66;42.11;97170.19;5151433;27;20035;-82
2023/03/04 11:13:58;;;;;;;6.28;3.25;;;;;;;23.36;40.75;97152.78;5143434;27;20023;-81
2023/03/04 11:16:27;;;;;;;7.75;3.55;;;;;;;24.38;38.49;97155.66;5130925;27;20060;-81
2023/03/04 11:18:55;;;;;;;6.15;3.40;;;;;;;25.25;37.53;97140.88;5116818;27;20015;-81